Disclaimer

Please do not use the information listed here in-flight or in-navigation, as they are not provided to us by the airports but are provided by volunteers, so they might be outdated.

Search


Regions


Airport information page

Radio informations:
VIENTIANE TWR - 118.1 MHz
VIENTIANE APP - 119.7 MHz

Airport informations:
Latitude: 17° 59' 17.96" N
Longitude: 102° 33' 47.72" E
Elevation: 564 feet - 172 meters
Operating hours: Remarks
Operating agency: Military-civil joint use airport
Timezone: UTC+7
Fuel: Jet A1, without icing nhibitor.

Aviation Gasoline (AVGAS), octane unknown.

Runway information:
13/31 - 9843 x 148 feet< - >3000 x 45 meters

Recent METARs:
VLVT 182300Z 27002KT 6000 BKN040 23/22 Q1013 NOSIG
VLVT 182330Z 27002KT 6000 SCT040 SCT100 23/22 Q1013 NOSIG
VLVT 190000Z 22002KT 9999 SCT050 SCT200 23/22 Q1014 NOSIG

Airport on the map: